createdAt,value
2019-05-18T00:02:20.909Z,41.48
2019-05-18T00:04:54.749Z,42.80
2019-05-18T00:07:28.656Z,36.08
2019-05-18T00:10:04.183Z,36.10
2019-05-18T00:12:38.580Z,32.65
2019-05-18T00:17:45.752Z,35.23
2019-05-18T00:20:19.479Z,29.27
2019-05-18T00:22:53.933Z,36.10
2019-05-18T00:25:28.192Z,33.25
2019-05-18T00:28:02.537Z,34.83
2019-05-18T00:30:36.275Z,28.75
2019-05-18T00:33:11.672Z,26.97
2019-05-18T00:35:46.076Z,25.27
2019-05-18T00:38:19.872Z,31.73
2019-05-18T00:40:54.017Z,22.25
2019-05-18T00:43:29.562Z,25.05
2019-05-18T00:46:03.385Z,23.98
2019-05-18T00:48:37.181Z,26.55
2019-05-18T00:51:11.441Z,27.13
2019-05-18T00:53:45.823Z,29.80
2019-05-18T00:56:20.284Z,31.48
2019-05-18T01:01:26.448Z,25.97
2019-05-18T01:04:00.710Z,31.12
2019-05-18T01:06:34.882Z,27.05
2019-05-18T01:09:09.202Z,29.77
2019-05-18T01:11:43.225Z,24.57
2019-05-18T01:14:17.161Z,28.40
2019-05-18T01:16:50.781Z,28.62
2019-05-18T01:19:25.262Z,21.83
2019-05-18T01:24:33.640Z,20.70
2019-05-18T01:27:07.849Z,22.00
2019-05-18T01:29:41.859Z,22.85
2019-05-18T01:32:16.929Z,24.70
2019-05-18T01:34:51.672Z,28.67
2019-05-18T01:37:25.311Z,22.27
2019-05-18T01:39:59.346Z,23.07
2019-05-18T01:42:33.493Z,24.20
2019-05-18T01:45:16.871Z,24.43
2019-05-18T01:47:44.010Z,23.67
2019-05-18T01:50:17.855Z,25.85
2019-05-18T01:52:51.868Z,25.25
2019-05-18T01:55:27.159Z,22.25
2019-05-18T01:58:01.585Z,26.33
2019-05-18T02:03:08.643Z,25.92
2019-05-18T02:08:14.594Z,20.65
2019-05-18T02:10:49.412Z,31.90
2019-05-18T02:13:23.540Z,24.40
2019-05-18T02:15:57.727Z,24.90
2019-05-18T02:18:31.494Z,23.00
2019-05-18T02:21:05.134Z,23.80
2019-05-18T02:23:39.357Z,22.48
2019-05-18T02:28:46.615Z,27.30
2019-05-18T02:33:54.999Z,22.93
2019-05-18T02:36:29.588Z,27.82
2019-05-18T02:41:38.290Z,23.45
2019-05-18T02:44:12.364Z,24.02
2019-05-18T02:46:46.743Z,28.23
2019-05-18T02:49:20.989Z,24.72
2019-05-18T02:51:55.161Z,23.85
2019-05-18T02:54:29.245Z,21.60
2019-05-18T02:57:03.449Z,22.90
2019-05-18T02:59:37.343Z,22.02
2019-05-18T03:02:11.149Z,22.62
2019-05-18T03:04:44.825Z,33.25
2019-05-18T03:07:18.681Z,25.55
2019-05-18T03:09:52.942Z,23.55
2019-05-18T03:12:26.959Z,28.27
2019-05-18T03:15:01.030Z,28.05
2019-05-18T03:17:35.707Z,20.90
2019-05-18T03:20:10.399Z,30.57
2019-05-18T03:22:44.170Z,21.07
2019-05-18T03:25:21.025Z,29.70
2019-05-18T03:27:55.758Z,26.68
2019-05-18T03:30:30.215Z,26.35
2019-05-18T03:33:05.557Z,38.30
2019-05-18T03:35:40.014Z,18.40
2019-05-18T03:38:15.810Z,20.95
2019-05-18T03:40:49.637Z,24.50
2019-05-18T03:43:23.660Z,33.80
2019-05-18T03:45:57.784Z,25.37
2019-05-18T03:48:31.522Z,28.02
2019-05-18T03:51:05.624Z,19.80
2019-05-18T03:53:39.885Z,27.73
2019-05-18T03:56:14.337Z,20.80
2019-05-18T04:01:22.714Z,27.00
2019-05-18T04:03:56.908Z,26.52
2019-05-18T04:06:31.280Z,26.55
2019-05-18T04:09:06.821Z,25.35
2019-05-18T04:11:40.831Z,26.05
2019-05-18T04:14:15.182Z,24.15
2019-05-18T04:16:50.366Z,21.87
2019-05-18T04:19:24.199Z,23.25
2019-05-18T04:21:58.206Z,19.00
2019-05-18T04:24:32.493Z,139.15
2019-05-18T04:29:39.238Z,26.90
2019-05-18T04:32:13.248Z,20.45
2019-05-18T04:34:47.727Z,23.02
2019-05-18T04:37:21.770Z,19.55
2019-05-18T04:39:56.830Z,22.55
2019-05-18T04:42:31.456Z,25.20
2019-05-18T04:45:06.160Z,26.20
2019-05-18T04:47:40.777Z,29.77
2019-05-18T04:55:30.344Z,20.72
2019-05-18T04:58:04.831Z,22.25
2019-05-18T05:00:39.966Z,24.23
2019-05-18T05:03:13.876Z,22.25
2019-05-18T05:05:47.878Z,19.80
2019-05-18T05:08:21.641Z,22.93
2019-05-18T05:10:56.066Z,17.60
2019-05-18T05:13:30.887Z,18.82
2019-05-18T05:16:05.542Z,23.05
2019-05-18T05:18:39.651Z,21.57
2019-05-18T05:21:14.836Z,18.25
2019-05-18T05:23:49.635Z,23.20
2019-05-18T05:26:23.862Z,18.50
2019-05-18T05:31:36.706Z,25.40
2019-05-18T05:34:13.205Z,19.75
2019-05-18T05:36:53.491Z,19.15
2019-05-18T05:39:27.593Z,18.40
2019-05-18T05:42:02.814Z,22.15
2019-05-18T05:44:38.255Z,19.42
2019-05-18T05:47:12.327Z,19.70
2019-05-18T05:49:47.053Z,15.40
2019-05-18T05:52:21.070Z,18.25
2019-05-18T05:54:55.533Z,21.37
2019-05-18T06:00:03.424Z,19.35
2019-05-18T06:02:39.159Z,18.77
2019-05-18T06:05:13.206Z,17.75
2019-05-18T06:07:48.907Z,21.27
2019-05-18T06:10:23.245Z,21.68
2019-05-18T06:12:57.826Z,22.93
2019-05-18T06:15:31.948Z,18.73
2019-05-18T06:18:06.418Z,15.15
2019-05-18T06:20:51.009Z,18.12
2019-05-18T06:23:17.902Z,14.50
2019-05-18T06:25:52.794Z,20.95
2019-05-18T06:28:27.744Z,18.80
2019-05-18T06:31:02.506Z,18.82
2019-05-18T06:33:37.182Z,16.75
2019-05-18T06:36:11.957Z,18.70
2019-05-18T06:38:45.624Z,15.72
2019-05-18T06:41:19.817Z,17.62
2019-05-18T06:43:58.215Z,18.42
2019-05-18T06:46:32.753Z,17.80
2019-05-18T06:49:09.744Z,24.23
2019-05-18T06:51:44.527Z,20.10
2019-05-18T06:54:18.954Z,17.20
2019-05-18T06:56:54.154Z,15.68
2019-05-18T06:59:29.821Z,15.80
2019-05-18T07:02:03.933Z,18.75
2019-05-18T07:04:39.003Z,18.50
2019-05-18T07:07:12.894Z,17.92
2019-05-18T07:09:47.646Z,16.30
2019-05-18T07:12:21.667Z,20.27
2019-05-18T07:14:55.632Z,17.70
2019-05-18T07:17:29.933Z,15.48
2019-05-18T07:22:36.676Z,18.20
2019-05-18T07:25:11.115Z,16.25
2019-05-18T07:27:45.260Z,18.40
2019-05-18T07:30:21.167Z,19.57
2019-05-18T07:32:58.659Z,16.62
2019-05-18T07:35:33.461Z,19.55
2019-05-18T07:38:07.692Z,16.93
2019-05-18T07:43:15.120Z,18.90
2019-05-18T07:45:49.352Z,15.55
2019-05-18T07:48:24.819Z,22.35
2019-05-18T07:50:59.119Z,18.02
2019-05-18T07:56:05.993Z,19.10
2019-05-18T07:58:40.221Z,18.87
2019-05-18T08:01:14.640Z,18.15
2019-05-18T08:06:22.328Z,16.97
2019-05-18T08:11:31.324Z,17.40
2019-05-18T08:16:38.176Z,19.35
2019-05-18T08:21:53.386Z,19.50
2019-05-18T08:24:20.889Z,21.57
2019-05-18T08:26:55.295Z,22.35
2019-05-18T08:32:02.648Z,17.95
2019-05-18T08:34:36.779Z,18.27
2019-05-18T08:37:10.992Z,17.65
2019-05-18T08:39:44.959Z,21.80
2019-05-18T08:42:18.904Z,19.27
2019-05-18T08:44:54.751Z,22.17
2019-05-18T08:47:29.060Z,20.35
2019-05-18T08:50:06.005Z,22.42
2019-05-18T08:52:40.610Z,22.15
2019-05-18T08:55:15.202Z,18.37
2019-05-18T08:57:49.518Z,18.05
2019-05-18T09:02:57.749Z,25.00
2019-05-18T09:05:32.300Z,24.90
2019-05-18T09:08:07.331Z,21.17
2019-05-18T09:10:41.362Z,25.08
2019-05-18T09:13:16.471Z,15.23
2019-05-18T09:15:50.885Z,22.30
2019-05-18T09:18:25.213Z,25.85
2019-05-18T09:23:32.965Z,23.92
2019-05-18T09:26:08.485Z,20.52
2019-05-18T09:28:42.473Z,59.53
2019-05-18T09:31:16.392Z,22.25
2019-05-18T09:33:50.443Z,15.83
2019-05-18T09:36:24.914Z,19.45
2019-05-18T09:39:00.009Z,37.85
2019-05-18T09:41:34.215Z,45.05
2019-05-18T09:44:08.617Z,54.45
2019-05-18T09:46:43.209Z,52.43
2019-05-18T09:49:18.515Z,58.23
2019-05-18T09:51:53.000Z,62.50
2019-05-18T09:57:01.283Z,67.10
2019-05-18T09:59:36.659Z,66.30
2019-05-18T10:02:13.805Z,62.03
2019-05-18T10:04:48.418Z,65.47
2019-05-18T10:07:23.178Z,67.97
2019-05-18T10:09:57.826Z,63.23
2019-05-18T10:12:33.906Z,71.17
2019-05-18T10:15:09.799Z,67.60
2019-05-18T10:17:44.090Z,66.62
2019-05-18T10:20:21.095Z,80.42
2019-05-18T10:23:11.413Z,74.10
2019-05-18T10:25:31.209Z,70.78
2019-05-18T10:30:38.639Z,78.30
2019-05-18T10:33:12.589Z,78.45
2019-05-18T10:35:47.004Z,84.70
2019-05-18T10:40:55.222Z,74.32
2019-05-18T10:43:29.723Z,78.17
2019-05-18T10:46:04.189Z,71.37
2019-05-18T10:48:38.233Z,71.92
2019-05-18T10:51:12.633Z,78.22
2019-05-18T10:53:46.814Z,72.20
2019-05-18T10:56:21.169Z,72.85
2019-05-18T10:58:55.669Z,68.52
2019-05-18T11:01:29.728Z,66.17
2019-05-18T11:04:03.531Z,75.20
2019-05-18T11:06:38.076Z,71.87
2019-05-18T11:09:12.362Z,73.35
2019-05-18T11:11:46.471Z,71.45
2019-05-18T11:14:20.092Z,79.45
2019-05-18T11:16:53.801Z,66.33
2019-05-18T11:19:28.229Z,76.00
2019-05-18T11:22:02.498Z,69.95
2019-05-18T11:27:09.016Z,66.30
2019-05-18T11:29:42.604Z,63.20
2019-05-18T11:32:17.084Z,68.73
2019-05-18T11:34:51.374Z,63.50
2019-05-18T11:39:58.951Z,64.62
2019-05-18T11:42:34.093Z,60.75
2019-05-18T11:45:12.607Z,61.23
2019-05-18T11:47:47.305Z,67.17
2019-05-18T11:52:56.390Z,60.10
2019-05-18T11:55:33.448Z,63.15
2019-05-18T11:58:07.350Z,61.18
2019-05-18T12:00:41.515Z,67.22
2019-05-18T12:03:15.892Z,68.47
2019-05-18T12:05:49.900Z,70.52
2019-05-18T12:08:24.571Z,66.75
2019-05-18T12:10:58.956Z,72.45
2019-05-18T12:13:33.619Z,65.28
2019-05-18T12:18:41.096Z,60.40
2019-05-18T12:21:15.453Z,70.35
2019-05-18T12:26:22.481Z,62.50
2019-05-18T12:28:56.350Z,70.05
2019-05-18T12:31:30.414Z,63.95
2019-05-18T12:34:04.325Z,66.47
2019-05-18T12:36:38.615Z,59.10
2019-05-18T12:39:12.981Z,66.70
2019-05-18T12:44:19.817Z,60.83
2019-05-18T12:49:27.145Z,58.95
2019-05-18T12:52:01.512Z,67.55
2019-05-18T12:59:44.558Z,64.30
2019-05-18T13:02:18.905Z,73.17
2019-05-18T13:04:54.043Z,74.40
2019-05-18T13:07:28.582Z,64.90
2019-05-18T13:10:02.889Z,63.02
2019-05-18T13:12:37.097Z,56.45
2019-05-18T13:15:15.174Z,62.05
2019-05-18T13:17:49.474Z,65.57
2019-05-18T13:20:25.024Z,61.80
2019-05-18T13:22:59.064Z,61.88
2019-05-18T13:25:33.522Z,70.85
2019-05-18T13:30:40.603Z,61.77
2019-05-18T13:33:14.707Z,66.28
2019-05-18T13:35:49.944Z,67.20
2019-05-18T13:38:27.414Z,69.95
2019-05-18T13:41:03.046Z,70.32
2019-05-18T13:46:12.891Z,56.50
2019-05-18T13:48:46.970Z,63.85
2019-05-18T13:51:22.534Z,62.33
2019-05-18T13:56:29.306Z,59.03
2019-05-18T13:59:03.342Z,59.50
2019-05-18T14:01:37.813Z,64.42
2019-05-18T14:04:12.511Z,71.85
2019-05-18T14:06:47.568Z,71.30
2019-05-18T14:09:26.170Z,76.87
2019-05-18T14:12:01.609Z,72.58
2019-05-18T14:14:37.428Z,70.08
2019-05-18T14:17:15.216Z,69.42
2019-05-18T14:19:49.739Z,68.52
2019-05-18T14:22:24.341Z,64.90
2019-05-18T14:24:58.706Z,67.72
2019-05-18T14:27:38.391Z,63.90
2019-05-18T14:30:12.993Z,68.12
2019-05-18T14:32:48.188Z,65.65
2019-05-18T14:35:22.367Z,70.62
2019-05-18T14:37:56.660Z,66.60
2019-05-18T14:43:05.204Z,64.27
2019-05-18T14:45:39.399Z,60.85
2019-05-18T14:50:46.462Z,66.92
2019-05-18T14:53:24.638Z,65.22
2019-05-18T14:55:59.970Z,68.12
2019-05-18T14:58:35.944Z,66.85
2019-05-18T15:01:12.894Z,67.82
2019-05-18T15:03:48.303Z,63.60
2019-05-18T15:06:25.052Z,71.02
2019-05-18T15:09:02.317Z,62.10
2019-05-18T15:11:41.171Z,69.67
2019-05-18T15:14:18.587Z,71.53
2019-05-18T15:16:53.157Z,72.27
2019-05-18T15:19:33.289Z,65.12
2019-05-18T15:22:06.947Z,66.62
2019-05-18T15:24:46.018Z,71.95
2019-05-18T15:27:21.132Z,63.20
2019-05-18T15:29:55.479Z,66.53
2019-05-18T15:35:06.363Z,69.22
2019-05-18T15:37:43.585Z,66.00
2019-05-18T15:40:18.221Z,67.62
2019-05-18T15:42:54.044Z,65.90
2019-05-18T15:45:30.448Z,69.97
2019-05-18T15:48:06.075Z,62.88
2019-05-18T15:50:43.358Z,70.40
2019-05-18T15:53:20.458Z,66.47
2019-05-18T15:56:05.751Z,68.33
2019-05-18T15:58:39.192Z,61.53
2019-05-18T16:01:14.189Z,62.60
2019-05-18T16:03:50.586Z,63.70
2019-05-18T16:06:25.363Z,64.53
2019-05-18T16:09:02.521Z,69.37
2019-05-18T16:11:38.170Z,67.65
2019-05-18T16:14:12.179Z,62.20
2019-05-18T16:16:46.621Z,67.55
2019-05-18T16:21:55.420Z,65.28
2019-05-18T16:24:30.381Z,62.83
2019-05-18T16:27:06.229Z,68.92
2019-05-18T16:29:42.883Z,64.03
2019-05-18T16:34:51.672Z,67.47
2019-05-18T16:37:25.779Z,62.00
2019-05-18T16:40:00.773Z,68.92
2019-05-18T16:42:34.974Z,61.33
2019-05-18T16:45:18.121Z,64.92
2019-05-18T16:47:52.852Z,66.13
2019-05-18T16:50:31.132Z,65.90
2019-05-18T16:53:07.249Z,66.05
2019-05-18T16:55:41.335Z,59.23
2019-05-18T16:58:15.447Z,67.08
2019-05-18T17:00:52.877Z,62.65
2019-05-18T17:03:27.042Z,64.10
2019-05-18T17:06:02.091Z,60.88
2019-05-18T17:08:36.632Z,64.17
2019-05-18T17:11:10.699Z,68.85
2019-05-18T17:13:44.813Z,68.83
2019-05-18T17:16:20.251Z,65.95
2019-05-18T17:18:54.404Z,61.10
2019-05-18T17:21:29.714Z,69.05
2019-05-18T17:24:07.087Z,66.05
2019-05-18T17:26:52.428Z,66.28
2019-05-18T17:29:19.339Z,68.52
2019-05-18T17:31:55.871Z,63.50
2019-05-18T17:34:31.409Z,60.03
2019-05-18T17:37:05.475Z,59.73
2019-05-18T17:39:40.112Z,66.07
2019-05-18T17:42:17.323Z,61.20
2019-05-18T17:44:52.181Z,61.73
2019-05-18T17:47:29.479Z,66.72
2019-05-18T17:50:03.044Z,68.45
2019-05-18T17:52:37.288Z,67.35
2019-05-18T17:55:16.201Z,63.65
2019-05-18T17:57:48.975Z,67.08
2019-05-18T18:00:22.845Z,63.23
2019-05-18T18:02:57.812Z,67.08
2019-05-18T18:05:31.972Z,66.15
2019-05-18T18:08:06.717Z,69.07
2019-05-18T18:10:41.654Z,63.75
2019-05-18T18:13:15.957Z,59.08
2019-05-18T18:15:50.167Z,61.00
2019-05-18T18:18:24.179Z,63.20
2019-05-18T18:20:59.250Z,56.80
2019-05-18T18:23:35.532Z,56.45
2019-05-18T18:26:10.745Z,68.78
2019-05-18T18:28:45.041Z,58.35
2019-05-18T18:33:51.858Z,63.75
2019-05-18T18:39:03.076Z,64.05
2019-05-18T18:41:38.748Z,65.40
2019-05-18T18:46:45.739Z,63.38
2019-05-18T18:49:19.667Z,59.33
2019-05-18T18:51:53.359Z,55.05
2019-05-18T18:54:27.700Z,64.90
2019-05-18T18:59:34.308Z,58.90
2019-05-18T19:02:08.626Z,57.08
2019-05-18T19:04:42.891Z,63.75
2019-05-18T19:07:17.263Z,51.73
2019-05-18T19:12:23.585Z,52.05
2019-05-18T19:14:57.509Z,53.08
2019-05-18T19:17:31.009Z,55.88
2019-05-18T19:20:04.989Z,58.17
2019-05-18T19:22:40.347Z,48.52
2019-05-18T19:25:15.102Z,57.62
2019-05-18T19:27:54.989Z,51.90
2019-05-18T19:30:26.637Z,50.30
2019-05-18T19:35:33.141Z,53.48
2019-05-18T19:38:07.386Z,58.30
2019-05-18T19:40:41.190Z,52.65
2019-05-18T19:43:15.290Z,50.15
2019-05-18T19:45:50.014Z,48.45
2019-05-18T19:48:23.779Z,47.27
2019-05-18T19:50:58.751Z,36.33
2019-05-18T19:53:32.678Z,41.88
2019-05-18T19:56:07.049Z,44.15
2019-05-18T20:01:13.249Z,46.92
2019-05-18T20:03:47.223Z,48.95
2019-05-18T20:06:21.674Z,47.88
2019-05-18T20:08:55.578Z,51.73
2019-05-18T20:11:29.985Z,52.67
2019-05-18T20:14:04.837Z,49.65
2019-05-18T20:16:38.661Z,53.63
2019-05-18T20:19:12.460Z,49.03
2019-05-18T20:21:46.931Z,55.83
2019-05-18T20:24:20.892Z,50.23
2019-05-18T20:26:54.796Z,48.00
2019-05-18T20:29:28.876Z,46.30
2019-05-18T20:32:03.280Z,47.80
2019-05-18T20:34:37.862Z,53.68
2019-05-18T20:37:11.585Z,54.33
2019-05-18T20:39:46.010Z,43.85
2019-05-18T20:44:52.495Z,50.25
2019-05-18T20:47:26.691Z,48.45
2019-05-18T20:50:01.159Z,45.90
2019-05-18T20:52:36.037Z,49.93
2019-05-18T20:55:10.191Z,45.90
2019-05-18T20:57:48.933Z,44.80
2019-05-18T21:00:23.094Z,47.33
2019-05-18T21:02:56.652Z,45.38
2019-05-18T21:05:30.642Z,43.93
2019-05-18T21:08:09.904Z,44.13
2019-05-18T21:10:43.952Z,46.25
2019-05-18T21:13:18.508Z,39.88
2019-05-18T21:15:52.729Z,39.95
2019-05-18T21:18:26.568Z,40.05
2019-05-18T21:21:00.273Z,40.30
2019-05-18T21:23:34.539Z,40.50
2019-05-18T21:26:08.684Z,42.88
2019-05-18T21:28:54.761Z,42.85
2019-05-18T21:31:17.897Z,38.10
2019-05-18T21:33:53.363Z,39.88
2019-05-18T21:36:27.099Z,36.70
2019-05-18T21:39:00.928Z,37.08
2019-05-18T21:41:35.878Z,42.55
2019-05-18T21:44:10.082Z,38.78
2019-05-18T21:46:44.261Z,35.52
2019-05-18T21:49:18.030Z,35.88
2019-05-18T21:51:52.524Z,37.03
2019-05-18T21:57:00.061Z,35.40
2019-05-18T21:59:34.361Z,36.30
2019-05-18T22:04:41.372Z,37.80
2019-05-18T22:07:15.176Z,37.48
2019-05-18T22:09:53.203Z,43.85
2019-05-18T22:12:25.320Z,39.30
2019-05-18T22:14:59.673Z,42.78
2019-05-18T22:17:34.947Z,37.90
2019-05-18T22:20:08.805Z,35.30
2019-05-18T22:22:45.681Z,32.65
2019-05-18T22:25:19.586Z,33.80
2019-05-18T22:27:54.055Z,34.23
2019-05-18T22:30:28.419Z,35.28
2019-05-18T22:35:36.443Z,40.17
2019-05-18T22:38:10.654Z,43.17
2019-05-18T22:40:44.855Z,38.38
2019-05-18T22:45:51.317Z,40.55
2019-05-18T22:48:38.940Z,41.02
2019-05-18T22:51:02.055Z,38.33
2019-05-18T22:53:36.105Z,35.08
2019-05-18T22:56:09.757Z,36.70
2019-05-18T22:58:43.796Z,33.35
2019-05-18T23:01:17.634Z,39.13
2019-05-18T23:03:52.057Z,35.85
2019-05-18T23:08:59.540Z,37.53
2019-05-18T23:11:33.459Z,37.23
2019-05-18T23:14:08.079Z,38.48
2019-05-18T23:19:33.952Z,32.28
2019-05-18T23:22:08.295Z,43.08
2019-05-18T23:24:42.381Z,34.88
2019-05-18T23:27:16.705Z,39.30
2019-05-18T23:29:50.857Z,43.63
2019-05-18T23:32:24.949Z,32.25
2019-05-18T23:34:58.624Z,44.98
2019-05-18T23:37:32.903Z,38.48
2019-05-18T23:40:06.923Z,35.10
2019-05-18T23:42:40.995Z,33.95
2019-05-18T23:45:15.431Z,39.45
2019-05-18T23:50:24.665Z,39.05
2019-05-18T23:52:59.336Z,37.73
2019-05-18T23:55:33.422Z,44.48
2019-05-18T23:58:07.802Z,42.65
